createdAt,value
2023-01-22T00:00:14.214Z,10.30
2023-01-22T00:02:43.127Z,10.47
2023-01-22T00:05:10.694Z,13.93
2023-01-22T00:07:38.249Z,11.60
2023-01-22T00:10:06.557Z,13.40
2023-01-22T00:12:34.468Z,12.93
2023-01-22T00:15:01.952Z,11.43
2023-01-22T00:17:30.374Z,11.77
2023-01-22T00:19:59.197Z,11.73
2023-01-22T00:22:26.837Z,12.07
2023-01-22T00:24:54.331Z,12.27
2023-01-22T00:27:21.825Z,10.70
2023-01-22T00:29:49.329Z,10.67
2023-01-22T00:32:16.934Z,9.20
2023-01-22T00:34:45.092Z,9.83
2023-01-22T00:37:13.906Z,9.30
2023-01-22T00:39:41.372Z,9.33
2023-01-22T00:42:08.893Z,9.27
2023-01-22T00:44:36.426Z,11.53
2023-01-22T00:47:03.924Z,10.47
2023-01-22T00:49:31.392Z,11.03
2023-01-22T00:51:58.881Z,9.70
2023-01-22T00:54:28.008Z,10.87
2023-01-22T00:56:55.499Z,10.83
2023-01-22T00:59:23.006Z,9.70
2023-01-22T01:01:50.511Z,9.83
2023-01-22T01:04:18.048Z,10.07
2023-01-22T01:06:45.651Z,8.73
2023-01-22T01:09:13.163Z,10.10
2023-01-22T01:11:42.045Z,11.07
2023-01-22T01:14:09.542Z,10.80
2023-01-22T01:16:37.014Z,13.10
2023-01-22T01:19:07.900Z,13.90
2023-01-22T01:21:35.665Z,13.47
2023-01-22T01:24:03.572Z,10.67
2023-01-22T01:26:31.098Z,13.73
2023-01-22T01:28:59.939Z,9.50
2023-01-22T01:31:27.544Z,12.63
2023-01-22T01:33:55.108Z,11.87
2023-01-22T01:36:46.358Z,9.90
2023-01-22T01:39:11.584Z,10.77
2023-01-22T01:41:39.154Z,10.63
2023-01-22T01:44:14.582Z,9.87
2023-01-22T01:46:46.070Z,9.70
2023-01-22T01:49:19.310Z,10.77
2023-01-22T01:51:47.898Z,11.03
2023-01-22T01:54:15.797Z,10.47
2023-01-22T01:56:48.918Z,10.47
2023-01-22T01:59:21.267Z,10.57
2023-01-22T02:01:53.652Z,9.07
2023-01-22T02:04:21.704Z,11.87
2023-01-22T02:06:49.329Z,11.87
2023-01-22T02:09:17.006Z,11.43
2023-01-22T02:11:44.729Z,11.50
2023-01-22T02:14:16.014Z,11.83
2023-01-22T02:16:45.129Z,10.50
2023-01-22T02:19:12.664Z,12.57
2023-01-22T02:21:43.095Z,12.50
2023-01-22T02:24:12.548Z,10.83
2023-01-22T02:26:41.936Z,11.20
2023-01-22T02:29:11.390Z,13.33
2023-01-22T02:31:40.418Z,10.33
2023-01-22T02:34:09.456Z,11.57
2023-01-22T02:36:38.785Z,10.17
2023-01-22T02:39:08.166Z,10.80
2023-01-22T02:41:35.738Z,10.80
2023-01-22T02:44:03.319Z,11.50
2023-01-22T02:46:30.847Z,11.80
2023-01-22T02:48:58.341Z,10.57
2023-01-22T02:51:26.612Z,10.50
2023-01-22T02:53:54.800Z,13.00
2023-01-22T02:56:24.071Z,11.83
2023-01-22T02:58:51.814Z,9.97
2023-01-22T03:01:21.748Z,10.63
2023-01-22T03:03:50.723Z,9.17
2023-01-22T03:06:21.418Z,9.50
2023-01-22T03:08:49.289Z,9.57
2023-01-22T03:11:16.842Z,10.33
2023-01-22T03:14:03.153Z,10.47
2023-01-22T03:16:49.792Z,9.83
2023-01-22T03:19:35.177Z,9.70
2023-01-22T03:22:02.737Z,10.37
2023-01-22T03:24:30.412Z,10.87
2023-01-22T03:26:58.029Z,12.47
2023-01-22T03:29:26.947Z,10.13
2023-01-22T03:31:54.447Z,10.80
2023-01-22T03:34:23.716Z,10.57
2023-01-22T03:36:51.282Z,10.87
2023-01-22T03:39:18.848Z,9.93
2023-01-22T03:41:46.364Z,10.87
2023-01-22T03:44:14.275Z,10.70
2023-01-22T03:46:43.179Z,10.13
2023-01-22T03:49:13.278Z,10.60
2023-01-22T03:51:41.059Z,10.60
2023-01-22T03:54:08.546Z,11.77
2023-01-22T03:56:36.031Z,10.67
2023-01-22T03:59:03.513Z,11.00
2023-01-22T04:01:31.293Z,10.53
2023-01-22T04:04:00.748Z,9.73
2023-01-22T04:06:28.857Z,10.53
2023-01-22T04:08:56.347Z,10.77
2023-01-22T04:11:24.049Z,10.60
2023-01-22T04:13:51.651Z,10.17
2023-01-22T04:16:19.220Z,11.47
2023-01-22T04:18:46.714Z,14.33
2023-01-22T04:21:15.605Z,11.10
2023-01-22T04:23:43.108Z,11.37
2023-01-22T04:26:10.727Z,11.70
2023-01-22T04:28:38.240Z,10.27
2023-01-22T04:31:08.622Z,11.07
2023-01-22T04:33:36.599Z,10.37
2023-01-22T04:36:04.335Z,10.57
2023-01-22T04:38:33.167Z,12.23
2023-01-22T04:41:00.674Z,11.60
2023-01-22T04:43:28.174Z,10.80
2023-01-22T04:45:55.696Z,11.63
2023-01-22T04:48:23.181Z,11.13
2023-01-22T04:50:50.685Z,10.60
2023-01-22T04:53:18.176Z,11.80
2023-01-22T04:55:47.014Z,12.93
2023-01-22T04:58:14.518Z,13.67
2023-01-22T05:00:42.035Z,11.87
2023-01-22T05:03:11.080Z,11.73
2023-01-22T05:05:38.586Z,11.50
2023-01-22T05:08:06.301Z,10.60
2023-01-22T05:10:33.920Z,11.40
2023-01-22T05:13:05.754Z,10.87
2023-01-22T05:15:33.438Z,11.50
2023-01-22T05:18:01.620Z,12.40
2023-01-22T05:20:29.134Z,10.60
2023-01-22T05:22:56.637Z,10.60
2023-01-22T05:25:24.237Z,12.97
2023-01-22T05:27:51.727Z,12.30
2023-01-22T05:30:20.966Z,11.57
2023-01-22T05:32:48.488Z,12.33
2023-01-22T05:35:16.098Z,12.00
2023-01-22T05:37:43.565Z,12.33
2023-01-22T05:40:12.281Z,12.63
2023-01-22T05:42:39.761Z,11.43
2023-01-22T05:45:08.290Z,11.70
2023-01-22T05:47:37.105Z,10.77
2023-01-22T05:50:04.925Z,10.97
2023-01-22T05:52:32.443Z,12.37
2023-01-22T05:55:01.847Z,12.47
2023-01-22T05:57:30.968Z,11.80
2023-01-22T05:59:58.455Z,12.93
2023-01-22T06:02:26.015Z,11.20
2023-01-22T06:04:54.870Z,11.47
2023-01-22T06:07:22.464Z,13.07
2023-01-22T06:09:49.984Z,15.03
2023-01-22T06:12:18.474Z,13.90
2023-01-22T06:14:45.965Z,13.43
2023-01-22T06:17:13.462Z,13.63
2023-01-22T06:19:40.991Z,14.90
2023-01-22T06:22:10.019Z,12.17
2023-01-22T06:24:37.552Z,13.60
2023-01-22T06:27:05.464Z,12.03
2023-01-22T06:29:32.967Z,12.07
2023-01-22T06:32:00.452Z,11.37
2023-01-22T06:34:27.958Z,13.43
2023-01-22T06:36:55.648Z,11.70
2023-01-22T06:39:24.464Z,14.90
2023-01-22T06:41:52.066Z,11.93
2023-01-22T06:44:19.744Z,12.10
2023-01-22T06:46:47.540Z,11.40
2023-01-22T06:49:15.535Z,11.90
2023-01-22T06:51:43.066Z,11.97
2023-01-22T06:54:12.207Z,11.07
2023-01-22T06:56:41.014Z,10.77
2023-01-22T06:59:09.110Z,12.20
2023-01-22T07:01:36.682Z,12.33
2023-01-22T07:04:04.323Z,11.33
2023-01-22T07:06:31.863Z,12.43
2023-01-22T07:08:59.345Z,11.77
2023-01-22T07:11:26.953Z,11.77
2023-01-22T07:13:55.769Z,13.20
2023-01-22T07:16:23.298Z,14.40
2023-01-22T07:18:50.901Z,11.93
2023-01-22T07:21:18.401Z,13.27
2023-01-22T07:23:45.913Z,13.00
2023-01-22T07:26:13.397Z,14.90
2023-01-22T07:28:40.890Z,13.07
2023-01-22T07:31:12.051Z,14.47
2023-01-22T07:33:39.736Z,14.30
2023-01-22T07:36:08.109Z,12.13
2023-01-22T07:38:35.642Z,13.83
2023-01-22T07:41:07.193Z,15.13
2023-01-22T07:43:38.907Z,16.57
2023-01-22T07:46:07.498Z,16.63
2023-01-22T07:48:37.411Z,15.73
2023-01-22T07:51:07.175Z,15.10
2023-01-22T07:53:35.460Z,15.53
2023-01-22T07:56:03.195Z,19.60
2023-01-22T07:58:30.695Z,13.73
2023-01-22T08:00:58.276Z,13.67
2023-01-22T08:03:25.761Z,10.33
2023-01-22T08:05:54.611Z,11.20
2023-01-22T08:08:22.082Z,13.93
2023-01-22T08:10:49.727Z,13.03
2023-01-22T08:13:17.216Z,14.37
2023-01-22T08:15:44.706Z,11.97
2023-01-22T08:18:12.671Z,14.50
2023-01-22T08:20:40.155Z,12.33
2023-01-22T08:23:09.027Z,11.83
2023-01-22T08:25:36.517Z,13.63
2023-01-22T08:28:05.399Z,12.97
2023-01-22T08:30:35.073Z,11.57
2023-01-22T08:33:08.097Z,12.27
2023-01-22T08:35:35.633Z,11.30
2023-01-22T08:38:03.154Z,12.07
2023-01-22T08:40:32.115Z,11.87
2023-01-22T08:42:59.655Z,12.17
2023-01-22T08:45:27.359Z,12.57
2023-01-22T08:47:59.306Z,12.20
2023-01-22T08:50:26.866Z,10.70
2023-01-22T08:52:56.932Z,14.67
2023-01-22T08:55:24.508Z,11.67
2023-01-22T08:57:55.325Z,12.97
2023-01-22T09:00:23.531Z,11.53
2023-01-22T09:02:51.048Z,12.63
2023-01-22T09:05:18.540Z,10.53
2023-01-22T09:07:46.020Z,13.87
2023-01-22T09:10:13.691Z,12.43
2023-01-22T09:12:41.870Z,11.17
2023-01-22T09:15:11.712Z,14.00
2023-01-22T09:17:39.202Z,16.63
2023-01-22T09:20:07.281Z,11.60
2023-01-22T09:22:34.931Z,11.87
2023-01-22T09:25:02.433Z,12.33
2023-01-22T09:27:29.916Z,12.47
2023-01-22T09:29:57.418Z,12.47
2023-01-22T09:32:26.292Z,12.53
2023-01-22T09:34:53.796Z,12.90
2023-01-22T09:37:21.419Z,11.57
2023-01-22T09:39:50.296Z,10.73
2023-01-22T09:42:22.016Z,11.07
2023-01-22T09:44:52.357Z,11.00
2023-01-22T09:47:34.106Z,12.30
2023-01-22T09:50:08.116Z,11.53
2023-01-22T09:52:39.138Z,12.23
2023-01-22T09:55:13.026Z,13.37
2023-01-22T09:57:44.974Z,11.70
2023-01-22T10:00:17.847Z,12.90
2023-01-22T10:02:49.862Z,13.03
2023-01-22T10:05:30.319Z,11.80
2023-01-22T10:08:01.380Z,12.87
2023-01-22T10:10:30.220Z,12.83
2023-01-22T10:13:07.729Z,10.60
2023-01-22T10:15:35.271Z,11.47
2023-01-22T10:18:10.580Z,12.60
2023-01-22T10:20:41.144Z,11.73
2023-01-22T10:23:17.669Z,11.50
2023-01-22T10:25:45.209Z,10.33
2023-01-22T10:28:14.902Z,9.53
2023-01-22T10:30:47.308Z,8.97
2023-01-22T10:33:18.637Z,8.70
2023-01-22T10:35:49.996Z,8.63
2023-01-22T10:38:26.934Z,7.00
2023-01-22T10:40:57.527Z,8.97
2023-01-22T10:43:32.701Z,10.90
2023-01-22T10:46:05.981Z,7.60
2023-01-22T10:48:34.249Z,6.50
2023-01-22T10:51:15.440Z,8.47
2023-01-22T10:53:49.116Z,6.30
2023-01-22T10:56:28.378Z,7.20
2023-01-22T10:58:57.879Z,7.53
2023-01-22T11:01:33.189Z,7.60
2023-01-22T11:04:11.670Z,6.90
2023-01-22T11:06:45.798Z,6.60
2023-01-22T11:09:18.560Z,8.67
2023-01-22T11:11:49.588Z,6.90
2023-01-22T11:14:29.092Z,7.20
2023-01-22T11:17:02.211Z,6.40
2023-01-22T11:19:39.717Z,6.40
2023-01-22T11:22:21.946Z,5.40
2023-01-22T11:24:49.820Z,6.17
2023-01-22T11:27:35.086Z,8.17
2023-01-22T11:30:25.426Z,6.90
2023-01-22T11:33:02.841Z,8.40
2023-01-22T11:35:36.123Z,10.73
2023-01-22T11:38:17.547Z,6.80
2023-01-22T11:41:00.610Z,6.63
2023-01-22T11:43:40.992Z,9.77
2023-01-22T11:46:20.473Z,8.40
2023-01-22T11:49:00.811Z,8.60
2023-01-22T11:51:34.565Z,6.77
2023-01-22T11:54:16.586Z,7.50
2023-01-22T11:56:54.459Z,6.60
2023-01-22T11:59:33.714Z,9.27
2023-01-22T12:02:14.029Z,7.30
2023-01-22T12:05:01.784Z,7.43
2023-01-22T12:08:01.500Z,8.03
2023-01-22T12:10:48.051Z,8.53
2023-01-22T12:13:31.007Z,7.70
2023-01-22T12:16:07.836Z,8.67
2023-01-22T12:18:58.412Z,7.67
2023-01-22T12:21:40.628Z,8.03
2023-01-22T12:24:15.258Z,8.87
2023-01-22T12:26:48.792Z,6.70
2023-01-22T12:29:22.212Z,7.47
2023-01-22T12:31:54.059Z,7.20
2023-01-22T12:34:25.826Z,9.63
2023-01-22T12:36:55.146Z,7.77
2023-01-22T12:39:27.992Z,7.23
2023-01-22T12:42:09.740Z,7.07
2023-01-22T12:44:49.949Z,7.50
2023-01-22T12:47:22.378Z,8.73
2023-01-22T12:49:52.469Z,7.70
2023-01-22T12:52:32.896Z,8.70
2023-01-22T12:55:01.105Z,9.27
2023-01-22T12:57:39.265Z,11.53
2023-01-22T13:00:23.965Z,10.07
2023-01-22T13:02:51.876Z,9.00
2023-01-22T13:05:23.491Z,9.80
2023-01-22T13:08:02.386Z,10.97
2023-01-22T13:10:31.455Z,13.77
2023-01-22T13:13:03.057Z,9.30
2023-01-22T13:15:33.540Z,10.37
2023-01-22T13:18:07.030Z,8.87
2023-01-22T13:20:37.160Z,9.00
2023-01-22T13:23:07.281Z,9.37
2023-01-22T13:25:35.399Z,8.50
2023-01-22T13:28:04.596Z,11.00
2023-01-22T13:30:32.684Z,9.67
2023-01-22T13:33:08.242Z,10.23
2023-01-22T13:35:37.219Z,10.80
2023-01-22T13:38:04.710Z,16.03
2023-01-22T13:40:42.765Z,9.60
2023-01-22T13:43:22.733Z,11.17
2023-01-22T13:45:51.109Z,10.80
2023-01-22T13:48:21.046Z,12.60
2023-01-22T13:50:54.721Z,10.93
2023-01-22T13:53:29.701Z,12.10
2023-01-22T13:55:58.031Z,12.47
2023-01-22T13:58:48.357Z,11.77
2023-01-22T14:01:30.822Z,12.50
2023-01-22T14:04:02.416Z,13.17
2023-01-22T14:06:30.491Z,12.23
2023-01-22T14:08:59.265Z,13.77
2023-01-22T14:11:26.832Z,13.23
2023-01-22T14:13:55.708Z,14.63
2023-01-22T14:16:23.309Z,11.97
2023-01-22T14:18:50.792Z,14.43
2023-01-22T14:21:18.292Z,14.47
2023-01-22T14:23:46.187Z,12.03
2023-01-22T14:26:13.752Z,13.10
2023-01-22T14:28:41.260Z,11.87
2023-01-22T14:31:10.214Z,11.57
2023-01-22T14:33:37.792Z,11.73
2023-01-22T14:36:06.102Z,10.70
2023-01-22T14:38:33.585Z,10.97
2023-01-22T14:41:04.475Z,10.23
2023-01-22T14:43:32.322Z,8.90
2023-01-22T14:45:59.922Z,12.40
2023-01-22T14:48:29.061Z,9.07
2023-01-22T14:50:56.549Z,8.97
2023-01-22T14:53:24.010Z,10.73
2023-01-22T14:55:51.485Z,9.27
2023-01-22T14:58:18.964Z,10.30
2023-01-22T15:00:46.479Z,12.07
2023-01-22T15:03:14.083Z,13.17
2023-01-22T15:05:42.900Z,12.17
2023-01-22T15:08:10.380Z,13.03
2023-01-22T15:10:37.870Z,14.23
2023-01-22T15:13:05.340Z,11.70
2023-01-22T15:15:32.894Z,11.17
2023-01-22T15:18:00.366Z,12.43
2023-01-22T15:20:27.869Z,13.17
2023-01-22T15:22:56.714Z,11.47
2023-01-22T15:25:24.205Z,12.43
2023-01-22T15:27:51.706Z,12.03
2023-01-22T15:30:19.570Z,13.43
2023-01-22T15:32:47.185Z,12.23
2023-01-22T15:35:14.782Z,12.33
2023-01-22T15:37:42.329Z,11.73
2023-01-22T15:40:12.879Z,12.67
2023-01-22T15:42:40.440Z,12.40
2023-01-22T15:45:08.955Z,12.67
2023-01-22T15:47:36.441Z,15.63
2023-01-22T15:50:04.275Z,13.10
2023-01-22T15:52:31.827Z,15.10
2023-01-22T15:54:59.326Z,13.80
2023-01-22T15:57:28.662Z,15.03
2023-01-22T15:59:56.141Z,16.03
2023-01-22T16:02:23.739Z,13.97
2023-01-22T16:04:51.295Z,13.17
2023-01-22T16:07:18.784Z,14.73
2023-01-22T16:09:46.288Z,13.40
2023-01-22T16:12:13.759Z,14.80
2023-01-22T16:14:42.571Z,12.10
2023-01-22T16:17:10.242Z,11.40
2023-01-22T16:19:37.768Z,13.63
2023-01-22T16:22:05.481Z,12.17
2023-01-22T16:24:33.160Z,12.37
2023-01-22T16:27:00.787Z,12.23
2023-01-22T16:29:28.278Z,14.20
2023-01-22T16:31:57.580Z,15.70
2023-01-22T16:34:25.140Z,13.87
2023-01-22T16:36:52.631Z,19.93
2023-01-22T16:39:22.100Z,14.77
2023-01-22T16:41:51.008Z,12.30
2023-01-22T16:44:20.091Z,11.53
2023-01-22T16:46:49.403Z,10.50
2023-01-22T16:49:21.236Z,10.13
2023-01-22T16:51:50.733Z,10.33
2023-01-22T16:54:21.702Z,10.77
2023-01-22T16:56:49.763Z,20.37
2023-01-22T16:59:17.683Z,24.47
2023-01-22T17:01:45.257Z,26.50
2023-01-22T17:04:13.329Z,12.37
2023-01-22T17:06:44.590Z,10.43
2023-01-22T17:09:14.701Z,11.70
2023-01-22T17:11:43.403Z,10.43
2023-01-22T17:14:11.386Z,11.30
2023-01-22T17:16:39.494Z,10.63
2023-01-22T17:19:07.091Z,12.13
2023-01-22T17:21:34.698Z,9.37
2023-01-22T17:24:04.851Z,12.70
2023-01-22T17:26:32.398Z,11.77
2023-01-22T17:28:59.902Z,9.77
2023-01-22T17:31:27.591Z,14.23
2023-01-22T17:33:55.970Z,14.90
2023-01-22T17:36:25.026Z,16.07
2023-01-22T17:38:53.225Z,11.50
2023-01-22T17:41:23.602Z,13.60
2023-01-22T17:43:52.801Z,11.80
2023-01-22T17:46:24.037Z,12.17
2023-01-22T17:48:52.908Z,13.60
2023-01-22T17:51:23.255Z,11.53
2023-01-22T17:53:52.124Z,12.13
2023-01-22T17:56:24.094Z,14.17
2023-01-22T17:58:54.070Z,15.47
2023-01-22T18:01:24.056Z,14.47
2023-01-22T18:03:52.355Z,15.37
2023-01-22T18:06:20.280Z,17.00
2023-01-22T18:08:47.762Z,17.20
2023-01-22T18:11:17.206Z,17.80
2023-01-22T18:13:46.087Z,16.63
2023-01-22T18:16:15.754Z,16.77
2023-01-22T18:18:43.968Z,17.20
2023-01-22T18:21:14.366Z,18.53
2023-01-22T18:23:41.999Z,19.30
2023-01-22T18:26:10.600Z,18.33
2023-01-22T18:28:38.514Z,15.63
2023-01-22T18:31:08.979Z,17.70
2023-01-22T18:33:37.321Z,14.80
2023-01-22T18:36:06.941Z,14.63
2023-01-22T18:38:36.589Z,14.97
2023-01-22T18:41:08.134Z,15.17
2023-01-22T18:43:35.682Z,19.23
2023-01-22T18:46:04.455Z,24.93
2023-01-22T18:48:33.542Z,21.27
2023-01-22T18:51:01.131Z,21.07
2023-01-22T18:53:29.632Z,17.30
2023-01-22T18:55:59.764Z,21.77
2023-01-22T18:58:32.135Z,19.47
2023-01-22T19:01:08.772Z,15.80
2023-01-22T19:03:38.111Z,15.87
2023-01-22T19:06:13.282Z,17.27
2023-01-22T19:08:42.595Z,15.47
2023-01-22T19:11:10.273Z,15.80
2023-01-22T19:13:39.423Z,18.00
2023-01-22T19:16:09.111Z,18.23
2023-01-22T19:18:38.255Z,19.13
2023-01-22T19:21:07.145Z,17.47
2023-01-22T19:23:36.620Z,15.10
2023-01-22T19:26:06.499Z,21.77
2023-01-22T19:28:34.111Z,17.90
2023-01-22T19:31:01.745Z,20.80
2023-01-22T19:33:29.662Z,19.80
2023-01-22T19:35:58.633Z,29.00
2023-01-22T19:38:26.122Z,36.13
2023-01-22T19:40:54.439Z,31.87
2023-01-22T19:43:21.940Z,33.43
2023-01-22T19:45:49.556Z,29.40
2023-01-22T19:48:17.057Z,20.10
2023-01-22T19:50:44.561Z,27.77
2023-01-22T19:53:13.462Z,26.30
2023-01-22T19:55:40.927Z,23.13
2023-01-22T19:58:08.423Z,26.60
2023-01-22T20:00:35.924Z,19.70
2023-01-22T20:03:06.574Z,19.33
2023-01-22T20:05:40.134Z,19.10
2023-01-22T20:08:07.954Z,19.67
2023-01-22T20:10:37.612Z,29.57
2023-01-22T20:13:05.682Z,21.67
2023-01-22T20:15:38.190Z,19.47
2023-01-22T20:18:06.030Z,18.87
2023-01-22T20:20:33.814Z,22.77
2023-01-22T20:23:02.133Z,17.80
2023-01-22T20:25:31.880Z,19.23
2023-01-22T20:28:01.198Z,19.20
2023-01-22T20:30:28.859Z,21.80
2023-01-22T20:32:56.685Z,21.10
2023-01-22T20:35:24.288Z,16.80
2023-01-22T20:37:51.834Z,15.87
2023-01-22T20:40:19.892Z,18.07
2023-01-22T20:42:47.523Z,20.90
2023-01-22T20:45:16.522Z,18.20
2023-01-22T20:47:44.937Z,15.47
2023-01-22T20:50:12.843Z,17.10
2023-01-22T20:52:40.332Z,20.80
2023-01-22T20:55:09.962Z,16.40
2023-01-22T20:57:37.455Z,18.77
2023-01-22T21:00:06.053Z,19.40
2023-01-22T21:02:35.199Z,18.67
2023-01-22T21:05:02.882Z,19.57
2023-01-22T21:07:30.442Z,18.50
2023-01-22T21:09:58.004Z,20.00
2023-01-22T21:12:25.648Z,18.33
2023-01-22T21:14:55.022Z,21.50
2023-01-22T21:17:22.677Z,18.87
2023-01-22T21:19:52.551Z,23.20
2023-01-22T21:22:20.033Z,20.13
2023-01-22T21:24:47.538Z,19.13
2023-01-22T21:27:15.044Z,20.87
2023-01-22T21:29:42.529Z,22.30
2023-01-22T21:32:10.026Z,21.20
2023-01-22T21:34:37.582Z,22.30
2023-01-22T21:37:06.467Z,24.27
2023-01-22T21:39:33.950Z,23.27
2023-01-22T21:42:15.407Z,25.63
2023-01-22T21:45:00.693Z,26.97
2023-01-22T21:47:30.059Z,31.40
2023-01-22T21:49:57.654Z,24.90
2023-01-22T21:52:26.957Z,27.83
2023-01-22T21:54:54.651Z,21.17
2023-01-22T21:57:22.184Z,24.77
2023-01-22T21:59:49.657Z,22.53
2023-01-22T22:02:19.469Z,24.40
2023-01-22T22:04:47.977Z,24.50
2023-01-22T22:07:15.503Z,23.70
2023-01-22T22:09:44.629Z,25.70
2023-01-22T22:12:12.519Z,24.67
2023-01-22T22:14:40.056Z,25.23
2023-01-22T22:17:08.215Z,23.97
2023-01-22T22:19:35.856Z,25.77
2023-01-22T22:22:03.372Z,25.63
2023-01-22T22:24:30.867Z,29.57
2023-01-22T22:26:59.719Z,28.57
2023-01-22T22:29:27.313Z,25.23
2023-01-22T22:31:55.458Z,27.13
2023-01-22T22:34:22.988Z,30.87
2023-01-22T22:36:50.470Z,28.27
2023-01-22T22:39:18.195Z,28.03
2023-01-22T22:41:45.970Z,29.50
2023-01-22T22:44:15.023Z,30.17
2023-01-22T22:46:42.515Z,28.50
2023-01-22T22:49:13.484Z,30.23
2023-01-22T22:51:42.838Z,29.17
2023-01-22T22:54:14.740Z,28.73
2023-01-22T22:56:42.622Z,28.97
2023-01-22T22:59:10.284Z,33.60
2023-01-22T23:01:39.311Z,26.03
2023-01-22T23:04:08.033Z,25.27
2023-01-22T23:06:37.566Z,28.90
2023-01-22T23:09:06.763Z,30.20
2023-01-22T23:11:36.228Z,26.93
2023-01-22T23:14:04.376Z,27.70
2023-01-22T23:16:33.799Z,27.87
2023-01-22T23:19:05.349Z,29.30
2023-01-22T23:21:35.016Z,30.40
2023-01-22T23:24:03.256Z,32.00
2023-01-22T23:26:31.460Z,30.47
2023-01-22T23:29:02.040Z,31.77
2023-01-22T23:31:31.282Z,35.27
2023-01-22T23:34:00.558Z,32.47
2023-01-22T23:36:30.396Z,33.57
2023-01-22T23:38:57.909Z,34.67
2023-01-22T23:41:25.796Z,35.83
2023-01-22T23:43:53.347Z,32.73
2023-01-22T23:46:22.547Z,35.13
2023-01-22T23:48:51.629Z,37.20
2023-01-22T23:51:19.852Z,30.37
2023-01-22T23:53:51.597Z,34.63
2023-01-22T23:56:20.138Z,35.30
2023-01-22T23:58:47.677Z,30.37
